Time;durP1;ratioP1;P1;durP2;ratioP2;P2;SDS_P1;SDS_P2;PMS_P1;PMS_P2;Temp;Humidity;BMP_temperature;BMP_pressure;BME280_temperature;BME280_humidity;BME280_pressure;Samples;Min_cycle;Max_cycle;Signal;HPM_P1;HPM_P2
2023/07/28 00:00:09;;;;;;;4.57;3.83;;;;;;;14.72;100.00;97493.59;5072282;28;20033;-75
2023/07/28 00:02:35;;;;;;;4.75;3.90;;;;;;;14.67;100.00;97489.53;5054600;28;20021;-76
2023/07/28 00:05:00;;;;;;;4.30;3.65;;;;;;;14.64;100.00;97488.78;5054067;28;20467;-75
2023/07/28 00:07:26;;;;;;;6.75;3.80;;;;;;;14.71;100.00;97491.00;5087368;28;20056;-76
2023/07/28 00:09:51;;;;;;;8.25;3.80;;;;;;;14.74;100.00;97488.06;5054303;28;20582;-76
2023/07/28 00:12:17;;;;;;;5.13;3.42;;;;;;;14.82;100.00;97493.72;5072409;28;20017;-76
2023/07/28 00:14:42;;;;;;;5.78;3.55;;;;;;;14.74;100.00;97488.06;5072331;28;20087;-76
2023/07/28 00:17:08;;;;;;;5.82;3.70;;;;;;;14.64;100.00;97479.88;5072044;28;20446;-75
2023/07/28 00:19:33;;;;;;;5.43;3.67;;;;;;;14.60;100.00;97489.16;5072181;28;20020;-75
2023/07/28 00:21:59;;;;;;;5.20;3.72;;;;;;;14.66;100.00;97494.06;5078874;28;20512;-75
2023/07/28 00:24:24;;;;;;;5.97;3.47;;;;;;;14.62;100.00;97500.66;5071714;28;20028;-75
2023/07/28 00:26:50;;;;;;;7.03;3.78;;;;;;;14.65;100.00;97487.81;5054164;28;20476;-75
2023/07/28 00:29:15;;;;;;;11.90;3.70;;;;;;;14.67;100.00;97492.25;5070804;28;20475;-75
2023/07/28 00:31:41;;;;;;;3.95;3.20;;;;;;;14.61;100.00;97489.03;5053860;28;20020;-76
2023/07/28 00:34:06;;;;;;;4.57;3.72;;;;;;;14.58;100.00;97489.28;5071809;28;20016;-75
2023/07/28 00:36:32;;;;;;;7.97;4.00;;;;;;;14.61;100.00;97486.34;5070552;28;20077;-76
2023/07/28 00:38:58;;;;;;;4.88;3.90;;;;;;;14.60;100.00;97490.03;5034149;28;20420;-76
2023/07/28 00:41:24;;;;;;;8.00;3.75;;;;;;;14.57;100.00;97494.81;5033738;28;20033;-76
2023/07/28 00:43:49;;;;;;;6.25;3.60;;;;;;;14.59;100.00;97501.78;5051499;28;20032;-76
2023/07/28 00:46:15;;;;;;;6.78;3.90;;;;;;;14.59;100.00;97504.47;5033857;28;20043;-75
2023/07/28 00:48:41;;;;;;;7.13;3.83;;;;;;;14.47;100.00;97493.78;5033874;28;20074;-76
2023/07/28 00:51:10;;;;;;;4.10;3.67;;;;;;;14.42;100.00;97480.72;5033943;28;20584;-75
2023/07/28 00:53:36;;;;;;;4.15;3.58;;;;;;;14.40;100.00;97481.78;5033533;28;20144;-75
2023/07/28 00:56:02;;;;;;;3.80;3.40;;;;;;;14.31;100.00;97477.97;5033482;28;20029;-75
2023/07/28 00:58:27;;;;;;;4.18;3.63;;;;;;;14.31;100.00;97483.34;5051050;28;20074;-75
2023/07/28 01:00:53;;;;;;;4.13;3.72;;;;;;;14.33;100.00;97486.81;5051353;28;20060;-75
2023/07/28 01:03:19;;;;;;;4.32;3.63;;;;;;;14.29;100.00;97487.13;5033490;28;20465;-75
2023/07/28 01:05:48;;;;;;;7.38;3.80;;;;;;;14.35;100.00;97500.13;5051328;28;20449;-76
2023/07/28 01:08:23;;;;;;;5.18;3.47;;;;;;;14.22;100.00;97500.19;5051991;28;20040;-76
2023/07/28 01:10:48;;;;;;;5.05;3.42;;;;;;;14.22;100.00;97499.34;5033502;28;20094;-76
2023/07/28 01:13:14;;;;;;;5.15;4.00;;;;;;;14.31;100.00;97498.63;5033315;28;20028;-75
2023/07/28 01:15:39;;;;;;;4.55;3.80;;;;;;;14.23;100.00;97488.47;5050969;28;20028;-75
2023/07/28 01:18:05;;;;;;;4.03;3.58;;;;;;;14.24;100.00;97505.47;5033520;28;20021;-76
2023/07/28 01:20:33;;;;;;;6.10;3.85;;;;;;;14.10;100.00;97501.16;5050869;28;20152;-75
2023/07/28 01:23:09;;;;;;;6.50;4.07;;;;;;;14.04;100.00;97490.84;5020090;28;20095;-75
2023/07/28 01:25:47;;;;;;;4.68;3.75;;;;;;;13.98;100.00;97497.56;5032890;28;20512;-74
2023/07/28 01:28:13;;;;;;;4.85;4.13;;;;;;;14.02;100.00;97501.75;5050980;28;20112;-76
2023/07/28 01:30:38;;;;;;;5.40;3.80;;;;;;;13.90;100.00;97499.13;5032997;28;20099;-75
2023/07/28 01:33:08;;;;;;;4.45;3.53;;;;;;;13.74;100.00;97493.19;5050900;28;20099;-75
2023/07/28 01:35:36;;;;;;;5.07;3.88;;;;;;;13.62;100.00;97483.38;5033047;28;20017;-75
2023/07/28 01:38:01;;;;;;;3.85;3.30;;;;;;;13.58;100.00;97490.78;5049794;28;20047;-76
2023/07/28 01:40:26;;;;;;;5.75;4.03;;;;;;;13.66;100.00;97490.25;5070327;28;20028;-75
2023/07/28 01:42:52;;;;;;;4.90;3.65;;;;;;;13.57;100.00;97484.56;5068009;28;20036;-75
2023/07/28 01:45:17;;;;;;;5.05;3.95;;;;;;;13.60;100.00;97485.31;5070569;28;20060;-75
2023/07/28 01:47:43;;;;;;;7.63;4.50;;;;;;;13.57;100.00;97487.25;5070272;28;20396;-75
2023/07/28 01:50:09;;;;;;;5.43;4.70;;;;;;;13.60;100.00;97490.69;5070377;28;20016;-76
2023/07/28 01:52:34;;;;;;;5.85;4.25;;;;;;;13.64;100.00;97486.78;5052451;28;20488;-74
2023/07/28 01:55:00;;;;;;;5.07;4.25;;;;;;;13.63;100.00;97493.16;5070358;28;20017;-75
2023/07/28 01:57:27;;;;;;;5.10;4.10;;;;;;;13.71;100.00;97494.28;5070574;28;20100;-75
2023/07/28 01:59:54;;;;;;;6.38;4.55;;;;;;;13.72;100.00;97498.66;5070259;28;20028;-76
2023/07/28 02:02:19;;;;;;;7.05;4.20;;;;;;;13.63;100.00;97491.31;5070437;28;20024;-76
2023/07/28 02:04:45;;;;;;;7.68;4.13;;;;;;;13.55;100.00;97491.91;5052307;28;20100;-76
2023/07/28 02:07:10;;;;;;;4.90;4.38;;;;;;;13.52;100.00;97493.94;5052884;28;20024;-76
2023/07/28 02:09:36;;;;;;;6.47;4.32;;;;;;;13.54;100.00;97498.22;5052176;28;20376;-74
2023/07/28 02:12:01;;;;;;;5.90;4.30;;;;;;;13.52;100.00;97493.94;5052307;28;20032;-77
2023/07/28 02:14:27;;;;;;;6.25;3.80;;;;;;;13.40;100.00;97495.72;5052665;28;20027;-76
2023/07/28 02:16:52;;;;;;;5.28;3.65;;;;;;;13.39;100.00;97491.31;5070068;28;20114;-75
2023/07/28 02:19:18;;;;;;;16.50;4.03;;;;;;;13.35;100.00;97497.88;5052328;28;20111;-76
2023/07/28 02:21:43;;;;;;;12.52;4.15;;;;;;;13.30;100.00;97494.69;5070167;28;20016;-74
2023/07/28 02:24:08;;;;;;;5.13;3.80;;;;;;;13.29;100.00;97501.00;5071327;28;20497;-75
2023/07/28 02:26:34;;;;;;;8.63;4.05;;;;;;;13.18;100.00;97492.03;5052354;28;20107;-76
2023/07/28 02:29:00;;;;;;;13.48;3.75;;;;;;;13.31;100.00;97500.91;5070409;28;20480;-73
2023/07/28 02:31:25;;;;;;;11.38;4.20;;;;;;;13.33;100.00;97498.97;5070495;28;20020;-75
2023/07/28 02:33:50;;;;;;;9.77;4.20;;;;;;;13.40;100.00;97505.59;5070095;28;20613;-74
2023/07/28 02:36:16;;;;;;;8.80;4.35;;;;;;;13.30;100.00;97500.06;5070236;28;20025;-75
2023/07/28 02:38:42;;;;;;;5.05;3.90;;;;;;;13.19;100.00;97502.69;5085433;28;20134;-75
2023/07/28 02:41:07;;;;;;;8.48;4.53;;;;;;;13.17;100.00;97499.22;5052946;28;20024;-75
2023/07/28 02:43:33;;;;;;;7.35;3.88;;;;;;;13.15;100.00;97505.69;5052357;28;20031;-75
2023/07/28 02:45:59;;;;;;;12.63;4.10;;;;;;;13.12;100.00;97501.41;5052083;28;20142;-75
2023/07/28 02:48:25;;;;;;;6.50;3.90;;;;;;;12.97;100.00;97507.84;5070199;28;20027;-75
2023/07/28 02:50:51;;;;;;;10.10;4.75;;;;;;;13.03;100.00;97510.09;5069971;28;20036;-75
2023/07/28 02:53:17;;;;;;;5.00;4.13;;;;;;;12.96;100.00;97498.94;5054639;28;20564;-76
2023/07/28 02:55:47;;;;;;;29.23;5.55;;;;;;;13.01;100.00;97501.31;5039259;28;20111;-76
2023/07/28 02:58:13;;;;;;;10.48;5.05;;;;;;;12.98;100.00;97514.94;5056833;28;20021;-76
2023/07/28 03:00:43;;;;;;;20.70;8.20;;;;;;;13.01;100.00;97518.25;5073921;28;20028;-76
2023/07/28 03:03:12;;;;;;;62.40;16.63;;;;;;;12.96;100.00;97507.00;5055697;28;20052;-76
2023/07/28 03:05:39;;;;;;;17.23;6.32;;;;;;;12.95;100.00;97526.75;5051887;28;20035;-77
2023/07/28 03:08:05;;;;;;;8.13;4.85;;;;;;;12.98;100.00;97520.31;5055496;28;20036;-76
2023/07/28 03:10:31;;;;;;;23.45;8.23;;;;;;;12.83;100.00;97519.56;5055921;28;20032;-77
2023/07/28 03:12:57;;;;;;;16.60;7.20;;;;;;;12.92;100.00;97526.13;5055808;28;20021;-75
2023/07/28 03:15:22;;;;;;;14.38;5.93;;;;;;;13.01;100.00;97525.47;5056670;28;20082;-76
2023/07/28 03:17:49;;;;;;;11.75;5.68;;;;;;;12.99;100.00;97522.88;5055215;28;20032;-76
2023/07/28 03:20:15;;;;;;;9.18;4.60;;;;;;;12.88;100.00;97524.63;5055252;28;20036;-76
2023/07/28 03:22:40;;;;;;;10.77;4.78;;;;;;;12.95;100.00;97524.06;5073456;28;20093;-76
2023/07/28 03:25:06;;;;;;;13.90;4.63;;;;;;;12.95;100.00;97524.06;5055218;28;20036;-76
2023/07/28 03:27:31;;;;;;;7.90;4.60;;;;;;;12.90;100.00;97526.22;5055262;28;20025;-75
2023/07/28 03:29:57;;;;;;;8.07;4.35;;;;;;;12.84;100.00;97518.59;5055426;28;20027;-75
2023/07/28 03:32:23;;;;;;;9.25;4.40;;;;;;;12.91;100.00;97522.59;5073281;28;20055;-75
2023/07/28 03:34:48;;;;;;;9.80;4.95;;;;;;;12.92;100.00;97518.91;5073087;28;20028;-76
2023/07/28 03:37:14;;;;;;;15.25;4.75;;;;;;;12.82;100.00;97514.31;5072775;28;20044;-76
2023/07/28 03:39:39;;;;;;;15.48;4.00;;;;;;;12.80;100.00;97518.91;5055030;28;20457;-76
2023/07/28 03:42:05;;;;;;;8.55;3.85;;;;;;;12.80;100.00;97521.59;5072599;28;20037;-76
2023/07/28 03:44:30;;;;;;;6.45;4.00;;;;;;;12.91;100.00;97527.09;5054771;28;20475;-76
2023/07/28 03:46:56;;;;;;;7.40;3.85;;;;;;;13.04;100.00;97525.25;5046575;28;20029;-76
2023/07/28 03:49:21;;;;;;;20.90;4.53;;;;;;;13.11;100.00;97520.28;5072626;28;20112;-76
2023/07/28 03:51:47;;;;;;;15.13;5.80;;;;;;;13.19;100.00;97532.22;5040829;28;20033;-76
2023/07/28 03:54:12;;;;;;;10.27;4.65;;;;;;;13.24;100.00;97534.56;5055097;28;20396;-75
2023/07/28 03:56:38;;;;;;;13.43;4.75;;;;;;;13.22;100.00;97534.69;5047925;28;20029;-75
2023/07/28 03:59:03;;;;;;;14.50;5.25;;;;;;;13.27;100.00;97540.56;5072753;28;20104;-75
2023/07/28 04:01:29;;;;;;;11.10;5.03;;;;;;;13.33;100.00;97534.75;5037484;28;20049;-75
2023/07/28 04:03:54;;;;;;;24.73;6.38;;;;;;;13.52;100.00;97536.94;5047022;28;20040;-76
2023/07/28 04:06:52;;;;;;;20.90;5.90;;;;;;;13.56;100.00;97531.25;5057505;28;20033;-75
2023/07/28 04:09:18;;;;;;;12.45;5.35;;;;;;;13.61;100.00;97524.66;5050891;28;20492;-75
2023/07/28 04:11:43;;;;;;;10.75;5.50;;;;;;;13.69;100.00;97536.53;5066295;28;20109;-77
2023/07/28 04:14:10;;;;;;;9.82;5.40;;;;;;;13.74;100.00;97537.06;5048563;28;20074;-75
2023/07/28 04:16:35;;;;;;;22.80;5.95;;;;;;;13.70;100.00;97540.09;5041041;28;20067;-75
2023/07/28 04:19:01;;;;;;;13.07;6.00;;;;;;;13.72;100.00;97532.78;5052452;28;20021;-76
2023/07/28 04:21:26;;;;;;;17.17;5.78;;;;;;;13.81;100.00;97538.31;5034299;28;20111;-75
2023/07/28 04:23:52;;;;;;;6.75;4.47;;;;;;;13.87;100.00;97532.47;5034179;28;20060;-76
2023/07/28 04:26:18;;;;;;;13.52;5.15;;;;;;;13.96;100.00;97536.31;5051689;28;20040;-76
2023/07/28 04:28:43;;;;;;;10.75;5.07;;;;;;;13.97;100.00;97535.31;5051394;28;20036;-77
2023/07/28 04:31:09;;;;;;;13.02;5.50;;;;;;;13.98;100.00;97521.78;5051240;28;20028;-76
2023/07/28 04:33:34;;;;;;;6.95;4.30;;;;;;;14.03;100.00;97537.53;5048558;28;20038;-75
2023/07/28 04:36:03;;;;;;;12.10;5.00;;;;;;;14.64;100.00;97539.94;5031371;28;20486;-76
2023/07/28 04:38:28;;;;;;;7.05;3.88;;;;;;;15.41;100.00;97524.75;5047814;28;20074;-76
2023/07/28 04:40:54;;;;;;;12.75;4.18;;;;;;;15.75;100.00;97522.03;5069018;28;20042;-75
2023/07/28 04:43:19;;;;;;;5.80;4.10;;;;;;;15.32;100.00;97520.09;5050757;28;20031;-75
2023/07/28 04:45:45;;;;;;;12.05;5.25;;;;;;;15.05;100.00;97528.59;5050944;28;20067;-76
2023/07/28 04:48:11;;;;;;;11.55;4.70;;;;;;;14.92;100.00;97527.03;5050872;28;20125;-76
2023/07/28 04:50:36;;;;;;;10.57;4.82;;;;;;;14.83;100.00;97533.09;5068642;28;20024;-76
2023/07/28 04:53:02;;;;;;;34.95;9.02;;;;;;;14.75;100.00;97535.56;5050708;28;20215;-77
2023/07/28 04:55:28;;;;;;;13.18;5.30;;;;;;;14.78;100.00;97529.94;5050533;28;20032;-77
2023/07/28 04:57:53;;;;;;;12.35;4.10;;;;;;;14.76;100.00;97529.22;5068851;28;20021;-76
2023/07/28 05:00:19;;;;;;;6.20;4.10;;;;;;;14.63;100.00;97529.31;5050620;28;20036;-77
2023/07/28 05:02:44;;;;;;;8.80;4.68;;;;;;;14.71;100.00;97524.16;5068356;28;20107;-77
2023/07/28 05:05:10;;;;;;;5.35;3.70;;;;;;;14.85;100.00;97523.09;5033908;28;20037;-76
2023/07/28 05:07:36;;;;;;;6.97;4.20;;;;;;;14.90;100.00;97526.25;5050597;28;20107;-76
2023/07/28 05:10:01;;;;;;;11.80;6.13;;;;;;;15.04;100.00;97526.03;5050707;28;20059;-75
2023/07/28 05:12:27;;;;;;;41.22;15.60;;;;;;;15.15;100.00;97526.88;5050234;28;20020;-74
2023/07/28 05:14:53;;;;;;;30.40;13.95;;;;;;;15.33;100.00;97521.84;5067607;28;20029;-75
2023/07/28 05:17:18;;;;;;;22.80;11.77;;;;;;;15.41;100.00;97527.44;5068289;28;20459;-75
2023/07/28 05:19:44;;;;;;;15.20;7.97;;;;;;;15.44;100.00;97524.50;5050185;28;20020;-75
2023/07/28 05:22:09;;;;;;;10.98;7.13;;;;;;;15.56;100.00;97528.94;5068011;28;20028;-75
2023/07/28 05:24:35;;;;;;;7.95;5.70;;;;;;;15.53;100.00;97520.25;5049953;28;20020;-75
2023/07/28 05:27:00;;;;;;;8.20;6.30;;;;;;;15.61;100.00;97521.31;5067889;28;20086;-74
2023/07/28 05:29:26;;;;;;;9.85;5.72;;;;;;;16.18;100.00;97514.75;5049759;28;20098;-74
2023/07/28 05:31:51;;;;;;;21.45;6.22;;;;;;;17.95;100.00;97507.00;5067946;28;20062;-74
2023/07/28 05:34:17;;;;;;;36.63;6.57;;;;;;;19.83;100.00;97495.06;5068204;28;20109;-75
2023/07/28 05:36:43;;;;;;;12.73;4.70;;;;;;;21.33;100.00;97476.69;5067661;28;20025;-74
2023/07/28 05:39:09;;;;;;;15.93;4.50;;;;;;;22.22;92.79;97462.47;5049931;28;20050;-75
2023/07/28 05:41:36;;;;;;;11.48;4.13;;;;;;;23.25;86.11;97458.94;5067549;28;20033;-75
2023/07/28 05:44:02;;;;;;;12.38;4.40;;;;;;;23.53;80.17;97463.78;5049900;28;20035;-75
2023/07/28 05:46:28;;;;;;;9.60;3.70;;;;;;;23.72;77.44;97467.97;5049787;28;20028;-75
2023/07/28 05:48:55;;;;;;;14.43;3.60;;;;;;;23.68;79.74;97466.66;5067600;28;20025;-76
2023/07/28 05:51:21;;;;;;;14.50;4.05;;;;;;;24.22;76.78;97465.66;5067540;28;20111;-75
2023/07/28 05:53:47;;;;;;;8.43;3.97;;;;;;;24.97;69.16;97460.22;5083056;28;20112;-75
2023/07/28 05:56:12;;;;;;;9.25;4.38;;;;;;;25.29;66.97;97450.78;5067560;28;20031;-75
2023/07/28 05:58:38;;;;;;;12.70;4.63;;;;;;;25.16;67.24;97454.19;5049458;28;20531;-74
2023/07/28 06:01:03;;;;;;;18.02;3.60;;;;;;;26.14;62.12;97446.41;5049268;28;20032;-75
2023/07/28 06:03:29;;;;;;;26.90;3.58;;;;;;;26.83;59.39;97438.44;5049314;28;20458;-75
2023/07/28 06:05:54;;;;;;;13.48;3.67;;;;;;;26.90;57.32;97431.09;5049351;28;20498;-75
2023/07/28 06:08:20;;;;;;;8.80;3.35;;;;;;;26.86;55.58;97429.78;5067535;28;20269;-76
2023/07/28 06:10:45;;;;;;;5.65;4.53;;;;;;;26.39;57.51;97436.75;5067147;28;20097;-74
2023/07/28 06:13:11;;;;;;;6.22;3.45;;;;;;;26.84;56.08;97429.16;5049547;28;20571;-75
2023/07/28 06:15:39;;;;;;;4.13;3.45;;;;;;;26.79;55.51;97429.69;5067269;28;20032;-75
2023/07/28 06:18:04;;;;;;;6.03;3.38;;;;;;;26.03;58.86;97433.19;5024467;28;20115;-75
2023/07/28 06:20:30;;;;;;;31.92;9.18;;;;;;;26.97;57.04;97421.03;5049410;28;20036;-75
2023/07/28 06:22:56;;;;;;;13.15;4.07;;;;;;;27.80;53.56;97423.59;5049292;28;20514;-75
2023/07/28 06:25:21;;;;;;;8.48;4.30;;;;;;;28.10;50.72;97412.28;5066064;28;20028;-76
2023/07/28 06:27:47;;;;;;;6.85;3.50;;;;;;;27.73;52.32;97410.88;5069246;28;20388;-75
2023/07/28 06:30:13;;;;;;;5.75;4.35;;;;;;;27.36;52.32;97410.25;5053552;28;20377;-75
2023/07/28 06:32:38;;;;;;;7.35;3.85;;;;;;;28.04;51.15;97413.94;5071656;28;20036;-75
2023/07/28 06:35:05;;;;;;;10.07;3.67;;;;;;;27.77;52.24;97409.41;5053373;28;20025;-75
2023/07/28 06:37:31;;;;;;;11.80;4.00;;;;;;;28.10;51.36;97412.28;5053277;28;20500;-75
2023/07/28 06:39:56;;;;;;;6.15;3.42;;;;;;;29.01;48.95;97395.81;5071074;28;20039;-74
2023/07/28 06:42:23;;;;;;;4.57;3.38;;;;;;;30.23;46.14;97400.47;5071010;28;20407;-75
2023/07/28 06:44:51;;;;;;;20.88;4.03;;;;;;;30.48;45.09;97393.97;5086692;28;20127;-75
2023/07/28 06:47:16;;;;;;;4.63;3.45;;;;;;;30.56;44.96;97396.44;5053320;28;20020;-74
2023/07/28 06:49:42;;;;;;;5.00;3.00;;;;;;;30.60;44.40;97389.41;5053425;28;20032;-76
2023/07/28 06:52:08;;;;;;;7.03;3.17;;;;;;;30.57;44.00;97392.63;5053152;28;20032;-74
2023/07/28 06:54:34;;;;;;;4.55;3.13;;;;;;;30.96;42.88;97385.91;5053185;28;20047;-73
2023/07/28 06:56:59;;;;;;;6.90;3.05;;;;;;;30.29;43.70;97394.91;5070699;28;20411;-74
2023/07/28 06:59:25;;;;;;;8.00;3.17;;;;;;;30.40;43.97;97396.97;5053068;28;20028;-74
2023/07/28 07:01:50;;;;;;;3.42;3.13;;;;;;;30.80;43.44;97397.50;5070897;28;20109;-75
2023/07/28 07:04:16;;;;;;;12.50;3.20;;;;;;;31.67;41.63;97400.03;5070462;28;20017;-74
2023/07/28 07:06:42;;;;;;;20.60;4.00;;;;;;;32.49;39.98;97397.63;5053013;28;20036;-75
2023/07/28 07:09:08;;;;;;;12.75;3.40;;;;;;;31.24;41.03;97392.84;5070360;28;20032;-74
2023/07/28 07:11:36;;;;;;;9.43;2.90;;;;;;;32.16;39.91;97385.16;5070601;28;20078;-74
2023/07/28 07:14:01;;;;;;;6.18;3.70;;;;;;;32.59;38.97;97379.41;5070442;28;20036;-75
2023/07/28 07:16:27;;;;;;;9.50;2.90;;;;;;;31.58;39.47;97373.78;5070471;28;20111;-75
2023/07/28 07:18:52;;;;;;;3.00;2.67;;;;;;;31.29;39.96;97379.19;5052647;28;20103;-75
2023/07/28 07:21:18;;;;;;;7.38;2.92;;;;;;;31.18;40.36;97378.03;5052550;28;20024;-74
2023/07/28 07:23:43;;;;;;;15.30;3.33;;;;;;;32.49;39.20;97376.31;5085992;28;20151;-75
2023/07/28 07:26:09;;;;;;;10.43;2.97;;;;;;;33.91;36.74;97354.69;5052177;28;20090;-76
2023/07/28 07:28:35;;;;;;;19.33;3.53;;;;;;;34.80;34.60;97357.53;5070450;28;20085;-76
2023/07/28 07:31:01;;;;;;;8.13;3.60;;;;;;;35.06;34.47;97360.69;5070295;28;20353;-76
2023/07/28 07:33:27;;;;;;;5.40;2.75;;;;;;;33.98;35.14;97356.25;5052353;28;20040;-76
2023/07/28 07:35:53;;;;;;;10.82;3.20;;;;;;;34.62;34.23;97360.56;5070317;28;20028;-76
2023/07/28 07:38:19;;;;;;;16.40;3.42;;;;;;;34.23;35.15;97361.47;5068397;28;20060;-76
2023/07/28 07:40:48;;;;;;;7.72;4.50;;;;;;;33.20;35.33;97355.94;5052378;28;20372;-74
2023/07/28 07:43:18;;;;;;;5.32;3.05;;;;;;;33.20;34.90;97361.47;5069966;28;20032;-74
2023/07/28 07:45:46;;;;;;;2.53;1.80;;;;;;;33.27;34.11;97359.44;5053211;28;20031;-74
2023/07/28 07:48:12;;;;;;;8.13;6.13;;;;;;;33.08;35.09;97353.19;5052051;28;20293;-74
2023/07/28 07:50:38;;;;;;;4.75;1.70;;;;;;;33.03;33.43;97357.72;5051891;28;20032;-74
2023/07/28 07:53:04;;;;;;;2.63;1.80;;;;;;;32.74;34.84;97367.84;5052225;28;20032;-74
2023/07/28 07:55:31;;;;;;;4.43;2.45;;;;;;;33.70;33.93;97351.53;5051697;28;20543;-74
2023/07/28 07:57:57;;;;;;;4.93;2.03;;;;;;;33.22;33.76;97353.78;5051987;28;20027;-74
2023/07/28 08:00:23;;;;;;;2.72;1.83;;;;;;;32.50;34.37;97364.16;5051734;28;20039;-74
2023/07/28 08:02:49;;;;;;;2.30;1.85;;;;;;;33.25;33.86;97361.63;5052479;28;20025;-75
2023/07/28 08:05:15;;;;;;;7.82;2.17;;;;;;;34.65;31.53;97351.72;5052037;28;20043;-75
2023/07/28 08:07:41;;;;;;;6.97;1.77;;;;;;;36.36;30.21;97352.44;5051648;28;20548;-75
2023/07/28 08:10:07;;;;;;;8.73;2.15;;;;;;;36.72;29.02;97348.06;5035146;28;20032;-75
2023/07/28 08:12:32;;;;;;;3.78;1.70;;;;;;;36.66;28.87;97344.38;5069526;28;20062;-75
2023/07/28 08:14:58;;;;;;;14.93;2.42;;;;;;;35.36;30.44;97353.69;5069455;28;20673;-75
2023/07/28 08:17:23;;;;;;;7.35;2.10;;;;;;;36.56;29.65;97357.38;5051632;28;20111;-75
2023/07/28 08:19:49;;;;;;;4.75;2.10;;;;;;;37.48;28.11;97343.88;5069534;28;20025;-75
2023/07/28 08:22:14;;;;;;;23.55;3.60;;;;;;;37.40;28.10;97338.78;5051696;28;20035;-75
2023/07/28 08:24:40;;;;;;;2.03;1.75;;;;;;;36.98;28.20;97338.75;5051606;28;20157;-75
2023/07/28 08:27:06;;;;;;;18.38;2.53;;;;;;;37.72;27.77;97331.16;5068655;28;20028;-75
2023/07/28 08:29:31;;;;;;;2.72;2.05;;;;;;;38.24;27.00;97333.03;5053371;28;20107;-74
2023/07/28 08:31:57;;;;;;;4.85;1.80;;;;;;;37.32;27.66;97330.91;5071123;28;20025;-74
2023/07/28 08:34:22;;;;;;;4.88;1.75;;;;;;;37.04;27.73;97317.38;5072034;28;20437;-75
2023/07/28 08:36:48;;;;;;;3.60;1.90;;;;;;;37.05;27.67;97322.66;5068246;28;20047;-75
2023/07/28 08:39:14;;;;;;;2.10;1.90;;;;;;;36.79;27.96;97329.97;5051855;28;20449;-75
2023/07/28 08:41:40;;;;;;;2.42;1.80;;;;;;;37.13;27.48;97316.56;5033957;28;20044;-74
2023/07/28 08:44:07;;;;;;;3.92;1.90;;;;;;;38.01;26.48;97322.34;5033894;28;20029;-74
2023/07/28 08:46:34;;;;;;;5.10;2.17;;;;;;;38.25;26.41;97307.59;5017300;28;20021;-73
2023/07/28 08:49:00;;;;;;;7.18;2.60;;;;;;;38.03;27.07;97303.34;5033955;28;20099;-75
2023/07/28 08:51:25;;;;;;;6.72;2.10;;;;;;;37.65;26.80;97302.66;5051031;28;20029;-75
2023/07/28 08:53:51;;;;;;;2.63;1.90;;;;;;;37.95;27.26;97304.72;5033372;28;20020;-75
2023/07/28 08:56:16;;;;;;;6.15;1.67;;;;;;;38.47;26.13;97298.97;5051713;28;20028;-78
2023/07/28 08:58:42;;;;;;;2.00;1.80;;;;;;;39.07;24.96;97294.50;5033656;28;20017;-77
2023/07/28 09:01:07;;;;;;;6.63;2.03;;;;;;;39.73;24.83;97297.97;5051551;28;20436;-78
2023/07/28 09:03:37;;;;;;;12.73;2.65;;;;;;;40.76;24.26;97293.13;5033612;28;20031;-78
2023/07/28 09:06:03;;;;;;;3.00;2.10;;;;;;;39.04;25.37;97293.91;5066771;28;20484;-78
2023/07/28 09:08:30;;;;;;;7.13;2.35;;;;;;;38.72;25.96;97284.16;5033377;28;20032;-78
2023/07/28 09:10:56;;;;;;;8.02;2.20;;;;;;;39.87;24.45;97285.81;5016802;28;20040;-72
2023/07/28 09:13:22;;;;;;;17.33;2.40;;;;;;;40.17;24.08;97278.41;5033568;28;20495;-72
2023/07/28 09:15:47;;;;;;;2.35;1.73;;;;;;;39.21;24.98;97273.16;5051137;28;20464;-72
2023/07/28 09:18:16;;;;;;;4.05;2.05;;;;;;;38.98;25.23;97267.06;5051117;28;20037;-72
2023/07/28 09:20:43;;;;;;;4.20;1.98;;;;;;;40.00;24.49;97261.94;5051544;28;20043;-73
2023/07/28 09:23:10;;;;;;;3.08;1.90;;;;;;;40.34;24.39;97273.22;5032992;28;20539;-72
2023/07/28 09:25:36;;;;;;;2.80;1.90;;;;;;;41.33;23.50;97257.72;5051089;28;20473;-72
2023/07/28 09:28:02;;;;;;;5.50;2.03;;;;;;;40.27;24.28;97253.09;5032676;28;20057;-72
2023/07/28 09:30:44;;;;;;;1.92;1.80;;;;;;;40.94;23.75;97246.66;5033258;28;20028;-72
2023/07/28 09:33:09;;;;;;;;;;;;;;;40.89;24.17;97250.31;5033737;28;20408;-73
2023/07/28 09:35:35;;;;;;;10.30;3.03;;;;;;;41.28;23.81;97250.22;5032706;28;20018;-72
2023/07/28 09:38:01;;;;;;;6.80;2.08;;;;;;;42.29;23.04;97237.66;5046056;28;20052;-72
2023/07/28 09:40:28;;;;;;;5.13;2.35;;;;;;;42.44;22.63;97234.59;5052807;28;20446;-72
2023/07/28 09:42:54;;;;;;;9.18;2.95;;;;;;;42.25;22.72;97233.75;5053190;28;20499;-73
2023/07/28 09:45:21;;;;;;;12.65;2.33;;;;;;;41.81;22.91;97225.69;5052789;28;20029;-73
2023/07/28 09:47:48;;;;;;;4.30;2.38;;;;;;;41.99;22.74;97224.88;5036123;28;20036;-74
2023/07/28 09:50:15;;;;;;;18.65;9.45;;;;;;;41.96;22.71;97214.19;5052436;28;20492;-74
2023/07/28 09:52:47;;;;;;;9.77;2.60;;;;;;;43.22;21.98;97216.88;5052483;28;20024;-73
2023/07/28 09:55:15;;;;;;;26.85;8.73;;;;;;;43.78;21.60;97212.91;5052800;28;20028;-74
2023/07/28 09:58:07;;;;;;;3.75;2.30;;;;;;;44.40;21.03;97197.88;5052788;28;20480;-74
2023/07/28 10:00:33;;;;;;;4.22;2.20;;;;;;;43.40;21.35;97201.03;5031020;28;20506;-74
2023/07/28 10:02:58;;;;;;;3.38;2.10;;;;;;;44.30;21.25;97197.31;5052769;28;20028;-74
2023/07/28 10:05:24;;;;;;;2.33;1.77;;;;;;;44.47;20.37;97195.44;5070424;28;20036;-74
2023/07/28 10:07:50;;;;;;;2.85;1.95;;;;;;;44.30;20.83;97194.50;5052664;28;20487;-74
2023/07/28 10:10:16;;;;;;;4.95;2.33;;;;;;;42.52;21.31;97190.81;5035837;28;20407;-73
2023/07/28 10:12:46;;;;;;;6.93;2.88;;;;;;;41.64;22.59;97194.44;5070306;28;20025;-73
2023/07/28 10:15:17;;;;;;;2.25;1.80;;;;;;;41.41;22.41;97186.91;5070313;28;20415;-72
2023/07/28 10:17:58;;;;;;;4.03;2.38;;;;;;;41.69;22.39;97177.47;5035858;28;20490;-73
2023/07/28 10:20:28;;;;;;;10.07;2.83;;;;;;;42.87;21.29;97181.75;5070286;28;20112;-74
2023/07/28 10:22:53;;;;;;;3.92;2.70;;;;;;;42.84;20.97;97175.91;5070193;28;20024;-74
2023/07/28 10:25:25;;;;;;;6.97;3.08;;;;;;;42.50;21.67;97176.22;5052462;28;20032;-73
2023/07/28 10:27:51;;;;;;;3.20;2.22;;;;;;;42.60;21.56;97174.09;5052203;28;20043;-73
2023/07/28 10:30:17;;;;;;;2.20;2.00;;;;;;;43.53;20.89;97174.81;5052573;28;20514;-73
2023/07/28 10:32:44;;;;;;;5.28;2.50;;;;;;;43.63;21.10;97177.38;5070210;28;20032;-73
2023/07/28 10:35:13;;;;;;;8.57;2.10;;;;;;;43.34;20.57;97174.06;5052610;28;20033;-73
2023/07/28 10:37:39;;;;;;;5.72;2.28;;;;;;;43.69;20.89;97170.47;5069976;28;20060;-73
2023/07/28 10:40:36;;;;;;;16.35;3.80;;;;;;;42.98;21.20;97169.16;5052322;28;20571;-73
2023/07/28 10:43:05;;;;;;;5.22;2.30;;;;;;;40.35;22.57;97159.91;5042833;28;20024;-72
2023/07/28 10:45:31;;;;;;;3.70;2.33;;;;;;;41.77;21.80;97157.16;5052335;28;20036;-73
2023/07/28 10:48:00;;;;;;;3.05;2.28;;;;;;;42.63;21.76;97152.94;5052212;28;20467;-73
2023/07/28 10:50:30;;;;;;;2.80;2.20;;;;;;;42.84;20.92;97157.03;5052308;28;20036;-73
2023/07/28 10:52:56;;;;;;;2.20;1.88;;;;;;;41.78;21.84;97144.75;5052078;28;20086;-72
2023/07/28 10:55:24;;;;;;;10.18;2.55;;;;;;;42.81;21.76;97149.22;5052192;28;20048;-73
2023/07/28 10:57:51;;;;;;;2.38;1.95;;;;;;;43.32;20.57;97139.75;5051927;28;20024;-72
2023/07/28 11:00:18;;;;;;;4.20;2.00;;;;;;;43.45;21.02;97136.09;5070223;28;20052;-74
2023/07/28 11:02:51;;;;;;;10.07;2.40;;;;;;;43.96;20.20;97128.16;5035714;28;20025;-72
2023/07/28 11:05:21;;;;;;;6.13;2.00;;;;;;;44.45;20.14;97126.34;5052485;28;20028;-73
2023/07/28 11:07:48;;;;;;;8.85;2.10;;;;;;;43.76;19.97;97128.63;5036426;28;20515;-73
2023/07/28 11:10:14;;;;;;;3.15;2.22;;;;;;;43.07;20.61;97124.22;5052015;28;20135;-73
2023/07/28 11:12:44;;;;;;;2.80;2.03;;;;;;;42.57;21.10;97126.00;5070169;28;20039;-73
2023/07/28 11:15:11;;;;;;;2.35;2.15;;;;;;;43.18;20.49;97128.50;5048181;28;20033;-73
2023/07/28 11:17:41;;;;;;;14.75;2.30;;;;;;;42.77;20.96;97128.44;5055627;28;20476;-73
2023/07/28 11:20:27;;;;;;;3.30;1.95;;;;;;;41.98;20.88;97121.13;5055621;28;20032;-72
2023/07/28 11:22:58;;;;;;;4.45;2.88;;;;;;;43.10;20.81;97126.41;5055694;28;20115;-72